createdAt,value
2023-02-04T00:01:49.544Z,71.11
2023-02-04T00:04:54.042Z,71.40
2023-02-04T00:07:58.608Z,71.48
2023-02-04T00:11:03.104Z,71.48
2023-02-04T00:14:08.077Z,71.43
2023-02-04T00:17:13.117Z,71.69
2023-02-04T00:20:19.697Z,71.97
2023-02-04T00:23:24.197Z,72.02
2023-02-04T00:26:28.746Z,72.17
2023-02-04T00:29:33.329Z,72.06
2023-02-04T00:32:37.920Z,71.99
2023-02-04T00:35:42.600Z,72.24
2023-02-04T00:38:47.034Z,72.00
2023-02-04T00:41:51.503Z,71.90
2023-02-04T00:44:56.074Z,72.04
2023-02-04T00:48:00.599Z,72.03
2023-02-04T00:51:05.248Z,72.07
2023-02-04T00:54:09.777Z,72.03
2023-02-04T00:57:14.251Z,71.84
2023-02-04T01:00:19.233Z,72.01
2023-02-04T01:03:23.747Z,72.13
2023-02-04T01:06:28.367Z,72.23
2023-02-04T01:09:32.917Z,72.27
2023-02-04T01:12:37.442Z,72.35
2023-02-04T01:15:42.066Z,72.30
2023-02-04T01:18:46.548Z,72.21
2023-02-04T01:21:51.202Z,72.05
2023-02-04T01:24:55.695Z,71.92
2023-02-04T01:28:00.298Z,71.61
2023-02-04T01:31:04.994Z,71.38
2023-02-04T01:34:09.610Z,71.07
2023-02-04T01:37:14.100Z,70.89
2023-02-04T01:40:18.898Z,70.84
2023-02-04T01:43:23.761Z,70.91
2023-02-04T01:46:28.232Z,70.96
2023-02-04T01:49:32.954Z,70.80
2023-02-04T01:52:40.293Z,70.70
2023-02-04T01:55:44.813Z,71.01
2023-02-04T01:58:49.860Z,71.03
2023-02-04T02:01:54.429Z,71.24
2023-02-04T02:04:58.957Z,71.25
2023-02-04T02:08:04.372Z,71.73
2023-02-04T02:11:08.930Z,71.89
2023-02-04T02:14:13.857Z,71.82
2023-02-04T02:17:18.415Z,71.73
2023-02-04T02:20:24.246Z,71.34
2023-02-04T02:23:34.125Z,71.46
2023-02-04T02:26:38.748Z,71.69
2023-02-04T02:29:43.774Z,71.37
2023-02-04T02:32:49.102Z,71.17
2023-02-04T02:35:53.733Z,70.96
2023-02-04T02:39:00.164Z,70.82
2023-02-04T02:42:05.036Z,70.62
2023-02-04T02:45:14.988Z,70.13
2023-02-04T02:48:19.526Z,70.02
2023-02-04T02:51:24.164Z,69.99
2023-02-04T02:54:29.977Z,69.79
2023-02-04T02:57:34.493Z,69.48
2023-02-04T03:00:39.027Z,69.53
2023-02-04T03:03:44.780Z,69.59
2023-02-04T03:06:49.875Z,69.78
2023-02-04T03:09:54.570Z,70.24
2023-02-04T03:12:59.516Z,70.44
2023-02-04T03:16:04.546Z,70.45
2023-02-04T03:19:09.526Z,70.52
2023-02-04T03:22:14.052Z,70.79
2023-02-04T03:25:18.876Z,70.30
2023-02-04T03:28:23.336Z,70.15
2023-02-04T03:31:27.978Z,70.12
2023-02-04T03:34:32.630Z,70.18
2023-02-04T03:37:37.252Z,70.48
2023-02-04T03:40:41.804Z,70.43
2023-02-04T03:43:46.298Z,69.91
2023-02-04T03:46:55.529Z,70.25
2023-02-04T03:50:00.261Z,70.53
2023-02-04T03:53:04.812Z,70.41
2023-02-04T03:56:10.490Z,70.55
2023-02-04T03:59:14.976Z,70.50
2023-02-04T04:02:19.512Z,70.57
2023-02-04T04:05:23.969Z,70.41
2023-02-04T04:08:28.413Z,69.75
2023-02-04T04:11:32.943Z,70.08
2023-02-04T04:14:37.859Z,70.13
2023-02-04T04:17:42.349Z,69.40
2023-02-04T04:20:46.810Z,69.31
2023-02-04T04:23:51.361Z,69.40
2023-02-04T04:26:55.863Z,69.51
2023-02-04T04:30:00.415Z,69.77
2023-02-04T04:33:05.027Z,69.58
2023-02-04T04:36:09.993Z,69.82
2023-02-04T04:39:14.597Z,69.90
2023-02-04T04:42:19.083Z,70.19
2023-02-04T04:45:23.532Z,70.10
2023-02-04T04:48:28.321Z,70.08
2023-02-04T04:51:33.079Z,70.43
2023-02-04T04:54:37.643Z,70.22
2023-02-04T04:57:42.135Z,69.46
2023-02-04T05:00:46.682Z,69.91
2023-02-04T05:03:51.317Z,70.51
2023-02-04T05:06:55.821Z,71.23
2023-02-04T05:10:00.426Z,72.15
2023-02-04T05:13:04.926Z,72.80
2023-02-04T05:16:12.087Z,73.38
2023-02-04T05:19:16.635Z,74.34
2023-02-04T05:22:21.106Z,75.76
2023-02-04T05:25:25.720Z,76.03
2023-02-04T05:28:30.281Z,76.82
2023-02-04T05:31:34.788Z,76.83
2023-02-04T05:34:40.073Z,76.97
2023-02-04T05:37:44.564Z,77.01
2023-02-04T05:40:49.135Z,77.01
2023-02-04T05:43:53.668Z,76.95
2023-02-04T05:46:58.362Z,76.64
2023-02-04T05:50:02.971Z,76.86
2023-02-04T05:53:07.524Z,77.19
2023-02-04T05:56:12.113Z,77.35
2023-02-04T05:59:16.681Z,77.24
2023-02-04T06:02:21.221Z,77.07
2023-02-04T06:05:25.699Z,77.60
2023-02-04T06:08:30.240Z,77.45
2023-02-04T06:11:34.868Z,77.32
2023-02-04T06:14:39.496Z,76.67
2023-02-04T06:17:44.029Z,76.46
2023-02-04T06:20:48.618Z,76.53
2023-02-04T06:23:53.182Z,76.67
2023-02-04T06:26:58.024Z,76.41
2023-02-04T06:30:02.494Z,76.02
2023-02-04T06:33:07.040Z,75.66
2023-02-04T06:36:11.545Z,75.51
2023-02-04T06:39:16.012Z,75.41
2023-02-04T06:42:20.553Z,75.90
2023-02-04T06:45:25.019Z,75.84
2023-02-04T06:48:31.124Z,75.77
2023-02-04T06:51:35.827Z,75.80
2023-02-04T06:54:40.341Z,75.87
2023-02-04T06:57:45.102Z,75.71
2023-02-04T07:00:49.637Z,75.60
2023-02-04T07:03:54.183Z,75.05
2023-02-04T07:06:58.786Z,75.13
2023-02-04T07:10:03.275Z,75.28
2023-02-04T07:13:07.718Z,74.78
2023-02-04T07:16:12.347Z,74.56
2023-02-04T07:19:16.992Z,74.40
2023-02-04T07:22:21.514Z,74.17
2023-02-04T07:25:26.066Z,73.77
2023-02-04T07:28:31.617Z,74.06
2023-02-04T07:31:36.210Z,73.84
2023-02-04T07:34:40.769Z,73.93
2023-02-04T07:37:45.246Z,73.63
2023-02-04T07:40:49.994Z,73.56
2023-02-04T07:43:54.492Z,73.64
2023-02-04T07:46:59.039Z,73.81
2023-02-04T07:50:03.601Z,73.79
2023-02-04T07:53:08.080Z,74.16
2023-02-04T07:56:12.608Z,74.11
2023-02-04T07:59:17.129Z,73.99
2023-02-04T08:02:21.704Z,73.89
2023-02-04T08:05:26.325Z,73.68
2023-02-04T08:08:30.842Z,72.98
2023-02-04T08:11:35.400Z,71.60
2023-02-04T08:14:39.847Z,71.28
2023-02-04T08:17:44.486Z,70.42
2023-02-04T08:20:49.049Z,69.61
2023-02-04T08:23:53.644Z,68.79
2023-02-04T08:26:58.401Z,68.45
2023-02-04T08:30:02.947Z,67.59
2023-02-04T08:33:07.629Z,67.24
2023-02-04T08:36:12.188Z,68.28
2023-02-04T08:39:16.629Z,67.11
2023-02-04T08:42:21.324Z,66.40
2023-02-04T08:45:25.870Z,66.47
2023-02-04T08:48:30.330Z,66.05
2023-02-04T08:51:35.014Z,65.38
2023-02-04T08:54:39.494Z,65.87
2023-02-04T08:57:44.040Z,66.31
2023-02-04T09:00:48.657Z,65.84
2023-02-04T09:03:53.324Z,65.44
2023-02-04T09:06:57.865Z,63.58
2023-02-04T09:10:02.320Z,64.25
2023-02-04T09:13:09.260Z,63.76
2023-02-04T09:16:14.524Z,64.38
2023-02-04T09:19:24.146Z,63.46
2023-02-04T09:22:28.696Z,63.86
2023-02-04T09:25:33.216Z,62.26
2023-02-04T09:28:37.813Z,62.76
2023-02-04T09:31:42.419Z,62.79
2023-02-04T09:34:46.980Z,62.49
2023-02-04T09:37:51.527Z,62.96
2023-02-04T09:40:58.800Z,63.69
2023-02-04T09:44:03.476Z,63.69
2023-02-04T09:47:07.970Z,62.27
2023-02-04T09:50:15.499Z,62.16
2023-02-04T09:53:21.385Z,62.30
2023-02-04T09:56:26.351Z,62.80
2023-02-04T09:59:30.852Z,63.06
2023-02-04T10:02:36.383Z,62.78
2023-02-04T10:05:40.872Z,62.74
2023-02-04T10:08:46.129Z,62.35
2023-02-04T10:11:50.814Z,62.75
2023-02-04T10:14:55.417Z,62.11
2023-02-04T10:18:02.987Z,62.31
2023-02-04T10:21:14.314Z,61.44
2023-02-04T10:24:20.026Z,61.84
2023-02-04T10:27:24.605Z,62.21
2023-02-04T10:30:30.271Z,62.63
2023-02-04T10:33:37.091Z,61.85
2023-02-04T10:36:43.424Z,61.88
2023-02-04T10:39:48.990Z,60.87
2023-02-04T10:42:53.539Z,60.88
2023-02-04T10:45:59.469Z,61.07
2023-02-04T10:49:04.950Z,60.64
2023-02-04T10:52:15.192Z,61.77
2023-02-04T10:55:21.094Z,62.40
2023-02-04T10:58:28.048Z,62.40
2023-02-04T11:01:32.980Z,62.16
2023-02-04T11:04:37.533Z,62.10
2023-02-04T11:07:42.243Z,62.88
2023-02-04T11:10:46.883Z,62.26
2023-02-04T11:14:00.888Z,61.78
2023-02-04T11:17:05.513Z,62.25
2023-02-04T11:20:31.991Z,61.55
2023-02-04T11:23:39.721Z,60.63
2023-02-04T11:26:44.855Z,61.29
2023-02-04T11:29:49.381Z,60.67
2023-02-04T11:33:03.236Z,58.35
2023-02-04T11:36:09.718Z,61.27
2023-02-04T11:39:18.144Z,63.29
2023-02-04T11:42:23.522Z,63.87
2023-02-04T11:45:28.978Z,63.42
2023-02-04T11:48:33.616Z,61.99
2023-02-04T11:51:38.122Z,60.64
2023-02-04T11:54:42.686Z,59.25
2023-02-04T11:57:47.744Z,60.36
2023-02-04T12:00:52.235Z,62.13
2023-02-04T12:04:00.047Z,63.42
2023-02-04T12:07:05.692Z,62.24
2023-02-04T12:10:26.239Z,59.38
2023-02-04T12:13:31.169Z,59.80
2023-02-04T12:16:43.078Z,58.79
2023-02-04T12:19:47.729Z,60.07
2023-02-04T12:22:52.278Z,61.58
2023-02-04T12:25:56.988Z,62.20
2023-02-04T12:29:03.459Z,60.75
2023-02-04T12:32:08.024Z,59.74
2023-02-04T12:35:12.609Z,59.58
2023-02-04T12:38:18.038Z,59.49
2023-02-04T12:41:23.270Z,61.42
2023-02-04T12:44:27.803Z,61.98
2023-02-04T12:47:32.366Z,60.15
2023-02-04T12:50:36.869Z,58.71
2023-02-04T12:53:41.377Z,58.00
2023-02-04T12:56:45.902Z,58.79
2023-02-04T12:59:50.616Z,60.76
2023-02-04T13:02:56.154Z,62.51
2023-02-04T13:06:00.557Z,63.39
2023-02-04T13:09:05.125Z,62.57
2023-02-04T13:12:09.709Z,61.08
2023-02-04T13:15:14.458Z,59.28
2023-02-04T13:18:19.780Z,56.99
2023-02-04T13:21:24.240Z,58.15
2023-02-04T13:24:29.113Z,59.51
2023-02-04T13:27:33.615Z,60.10
2023-02-04T13:30:38.186Z,61.22
2023-02-04T13:33:42.659Z,61.94
2023-02-04T13:36:47.164Z,62.92
2023-02-04T13:39:51.612Z,61.42
2023-02-04T13:42:56.268Z,60.42
2023-02-04T13:46:02.974Z,59.88
2023-02-04T13:49:07.562Z,59.09
2023-02-04T13:52:12.193Z,60.06
2023-02-04T13:55:16.924Z,60.62
2023-02-04T13:58:21.450Z,60.52
2023-02-04T14:01:26.092Z,60.93
2023-02-04T14:04:30.590Z,62.11
2023-02-04T14:07:35.295Z,63.05
2023-02-04T14:10:39.731Z,64.01
2023-02-04T14:13:44.301Z,60.84
2023-02-04T14:16:48.793Z,59.26
2023-02-04T14:19:53.344Z,59.43
2023-02-04T14:22:57.831Z,58.91
2023-02-04T14:26:02.480Z,60.07
2023-02-04T14:29:07.229Z,60.46
2023-02-04T14:32:11.691Z,61.26
2023-02-04T14:35:16.668Z,62.29
2023-02-04T14:38:21.295Z,63.22
2023-02-04T14:41:26.509Z,63.67
2023-02-04T14:44:31.045Z,62.64
2023-02-04T14:47:35.661Z,61.74
2023-02-04T14:50:40.322Z,58.73
2023-02-04T14:53:48.274Z,58.57
2023-02-04T14:56:53.331Z,58.82
2023-02-04T14:59:57.999Z,60.95
2023-02-04T15:03:02.621Z,61.25
2023-02-04T15:06:07.800Z,61.89
2023-02-04T15:09:12.331Z,63.53
2023-02-04T15:12:16.816Z,64.33
2023-02-04T15:15:21.480Z,62.57
2023-02-04T15:18:25.963Z,62.07
2023-02-04T15:21:30.510Z,61.63
2023-02-04T15:24:35.116Z,60.99
2023-02-04T15:27:39.690Z,59.48
2023-02-04T15:30:44.292Z,58.04
2023-02-04T15:33:49.030Z,59.75
2023-02-04T15:36:53.542Z,61.14
2023-02-04T15:39:58.073Z,61.97
2023-02-04T15:43:02.542Z,63.80
2023-02-04T15:46:07.142Z,64.10
2023-02-04T15:49:12.014Z,63.58
2023-02-04T15:52:24.649Z,63.14
2023-02-04T15:55:30.075Z,62.84
2023-02-04T15:58:34.724Z,62.84
2023-02-04T16:01:39.313Z,62.31
2023-02-04T16:04:45.478Z,60.74
2023-02-04T16:07:50.265Z,60.56
2023-02-04T16:10:55.323Z,61.17
2023-02-04T16:14:00.166Z,61.11
2023-02-04T16:17:06.964Z,61.40
2023-02-04T16:20:12.548Z,60.46
2023-02-04T16:23:17.117Z,60.48
2023-02-04T16:26:21.578Z,60.15
2023-02-04T16:29:26.984Z,60.00
2023-02-04T16:32:33.648Z,60.17
2023-02-04T16:35:56.439Z,60.35
2023-02-04T16:39:02.867Z,60.39
2023-02-04T16:42:09.001Z,60.53
2023-02-04T16:45:13.671Z,59.27
2023-02-04T16:48:18.474Z,59.98
2023-02-04T16:51:23.062Z,60.90
2023-02-04T16:54:27.605Z,63.25
2023-02-04T16:57:32.137Z,65.78
2023-02-04T17:00:38.827Z,66.49
2023-02-04T17:03:43.301Z,65.05
2023-02-04T17:06:47.810Z,64.02
2023-02-04T17:09:52.275Z,63.17
2023-02-04T17:12:57.369Z,63.46
2023-02-04T17:16:01.965Z,62.97
2023-02-04T17:19:06.795Z,62.70
2023-02-04T17:22:11.292Z,62.85
2023-02-04T17:25:15.913Z,62.35
2023-02-04T17:28:20.509Z,62.66
2023-02-04T17:31:25.003Z,62.70
2023-02-04T17:34:29.849Z,63.00
2023-02-04T17:37:34.356Z,62.94
2023-02-04T17:40:38.849Z,62.66
2023-02-04T17:43:43.504Z,63.39
2023-02-04T17:46:48.282Z,63.92
2023-02-04T17:49:52.788Z,63.93
2023-02-04T17:52:58.063Z,64.72
2023-02-04T17:56:02.669Z,64.51
2023-02-04T17:59:10.570Z,65.30
2023-02-04T18:02:20.038Z,65.81
2023-02-04T18:05:27.093Z,66.39
2023-02-04T18:08:37.483Z,66.44
2023-02-04T18:11:41.969Z,66.85
2023-02-04T18:14:46.965Z,67.06
2023-02-04T18:17:52.980Z,67.20
2023-02-04T18:21:01.406Z,66.92
2023-02-04T18:24:08.337Z,66.79
2023-02-04T18:27:17.061Z,67.12
2023-02-04T18:30:22.528Z,66.84
2023-02-04T18:33:28.189Z,66.97
2023-02-04T18:36:34.008Z,67.44
2023-02-04T18:39:38.517Z,66.97
2023-02-04T18:42:43.690Z,67.08
2023-02-04T18:45:48.327Z,67.72
2023-02-04T18:48:59.990Z,67.80
2023-02-04T18:52:15.138Z,67.78
2023-02-04T18:55:27.983Z,68.63
2023-02-04T18:58:36.003Z,68.60
2023-02-04T19:01:40.858Z,69.30
2023-02-04T19:04:45.960Z,69.48
2023-02-04T19:07:51.352Z,69.25
2023-02-04T19:10:56.488Z,68.85
2023-02-04T19:14:01.379Z,67.99
2023-02-04T19:17:22.090Z,68.13
2023-02-04T19:20:26.950Z,68.05
2023-02-04T19:23:37.378Z,68.26
2023-02-04T19:26:43.326Z,68.53
2023-02-04T19:29:49.823Z,68.02
2023-02-04T19:32:55.989Z,68.00
2023-02-04T19:36:01.817Z,68.22
2023-02-04T19:39:08.743Z,68.56
2023-02-04T19:42:24.568Z,68.02
2023-02-04T19:45:29.249Z,67.93
2023-02-04T19:48:36.862Z,67.25
2023-02-04T19:51:41.667Z,66.59
2023-02-04T19:54:45.993Z,66.79
2023-02-04T19:59:33.921Z,67.23
2023-02-04T20:02:42.293Z,66.64
2023-02-04T20:12:05.876Z,66.40
2023-02-04T20:15:20.673Z,66.83
2023-02-04T20:18:29.166Z,66.96
2023-02-04T20:21:35.440Z,66.97
2023-02-04T20:24:42.070Z,66.74
2023-02-04T20:27:52.348Z,67.07
2023-02-04T20:31:01.820Z,66.42
2023-02-04T20:34:18.841Z,66.36
2023-02-04T20:37:27.827Z,66.62
2023-02-04T20:40:37.175Z,66.82
2023-02-04T20:43:44.427Z,66.38
2023-02-04T20:46:50.841Z,66.47
2023-02-04T20:49:58.861Z,66.05
2023-02-04T20:53:17.907Z,66.16
2023-02-04T20:56:28.342Z,66.16
2023-02-04T20:59:36.566Z,65.86
2023-02-04T21:02:42.771Z,65.54
2023-02-04T21:05:50.336Z,65.59
2023-02-04T21:08:58.501Z,65.34
2023-02-04T21:12:06.053Z,65.73
2023-02-04T21:15:13.254Z,65.63
2023-02-04T21:18:19.982Z,65.49
2023-02-04T21:21:27.536Z,64.96
2023-02-04T21:24:34.949Z,65.15
2023-02-04T21:27:41.293Z,65.43
2023-02-04T21:30:45.839Z,65.47
2023-02-04T21:33:51.952Z,65.13
2023-02-04T21:36:58.230Z,65.01
2023-02-04T21:40:02.649Z,65.17
2023-02-04T21:43:08.884Z,65.65
2023-02-04T21:46:15.590Z,65.61
2023-02-04T21:49:21.796Z,65.32
2023-02-04T21:52:28.097Z,64.96
2023-02-04T21:55:32.783Z,64.93
2023-02-04T21:58:39.713Z,64.99
2023-02-04T22:01:45.831Z,64.80
2023-02-04T22:04:52.431Z,64.16
2023-02-04T22:07:59.886Z,63.80
2023-02-04T22:11:06.350Z,63.34
2023-02-04T22:14:10.965Z,63.04
2023-02-04T22:17:17.218Z,63.07
2023-02-04T22:20:22.328Z,63.05
2023-02-04T22:23:28.754Z,63.12
2023-02-04T22:26:35.030Z,63.16
2023-02-04T22:29:39.344Z,63.42
2023-02-04T22:32:46.153Z,63.32
2023-02-04T22:35:52.364Z,63.09
2023-02-04T22:38:58.653Z,63.37
2023-02-04T22:42:03.191Z,63.73
2023-02-04T22:45:11.477Z,63.78
2023-02-04T22:48:17.704Z,63.16
2023-02-04T22:51:24.340Z,62.43
2023-02-04T22:54:30.472Z,61.94
2023-02-04T22:57:36.765Z,61.87
2023-02-04T23:00:41.934Z,61.87
2023-02-04T23:03:48.970Z,62.31
2023-02-04T23:06:55.782Z,62.54
2023-02-04T23:10:02.328Z,62.62
2023-02-04T23:13:08.713Z,62.50
2023-02-04T23:16:15.015Z,62.21
2023-02-04T23:19:19.540Z,62.70
2023-02-04T23:22:25.825Z,62.88
2023-02-04T23:25:30.633Z,62.83
2023-02-04T23:28:37.142Z,62.89
2023-02-04T23:31:43.181Z,63.11
2023-02-04T23:34:49.473Z,63.51
2023-02-04T23:37:53.780Z,63.97
2023-02-04T23:41:00.205Z,64.11
2023-02-04T23:44:06.750Z,63.84
2023-02-04T23:47:12.930Z,63.86
2023-02-04T23:50:20.138Z,63.88
2023-02-04T23:53:26.432Z,64.06
2023-02-04T23:56:31.025Z,64.18
2023-02-04T23:59:40.938Z,64.49
